Neptune Antlia — S6BE — position and weather

sailwx.info

Track history (hours):
 
Tides and Currents Weather Stations Pressure Air Temp Water Temp Dewpoint Dewpoint Depression Visibility Wind Speed Wind Dir Waves Ship Positions

Neptune Antlia

Last reported at 2014-Aug-20 20:25 UTC. Time now 2014-Aug-23 13:27 UTC.
Position N 38°60' E 015°16'.

Type: Cargo ship. MMSI: 563737000.

Date/timePositionNaut miles runAvg speedWind from/ knotsBaromVisibWave heightAir tempDewpointWater temp
2014-Aug-20 20:25N 38°60' E 015°16'1213.5
2014-Aug-20 19:33N 39°07' E 015°05'8113.1
2014-Aug-20 13:23N 39°59' E 013°44'1113.3
2014-Aug-20 12:33N 40°06' E 013°33'22412.4
2014-Aug-19 18:30N 42°33' E 009°49'2612.5
2014-Aug-19 16:24N 42°59' E 009°40'911.3
2014-Aug-19 15:33N 43°08' E 009°41'1211.7
2014-Aug-19 14:33N 43°20' E 009°43'1212.0
2014-Aug-19 13:33N 43°32' E 009°45'1211.8
2014-Aug-19 12:33N 43°44' E 009°46'1212.2
2014-Aug-19 11:33N 43°53' E 009°56'10 9.7
2014-Aug-19 10:33N 44°02' E 010°02'0 0.0
2014-Aug-19 09:19N 44°02' E 010°02'0 0.0
2014-Aug-19 08:25N 44°02' E 010°02'0 0.0
2014-Aug-19 07:31N 44°02' E 010°02'0 0.0
2014-Aug-19 06:31N 44°02' E 010°02'0 0.0
2014-Aug-19 05:31N 44°02' E 010°02'0 0.0
2014-Aug-19 04:07N 44°02' E 010°02'0 0.0
2014-Aug-19 03:25N 44°02' E 010°02'0 0.0
2014-Aug-19 02:31N 44°02' E 010°02'0 0.0
2014-Aug-19 01:31N 44°02' E 010°02'0 0.0
2014-Aug-19 00:28N 44°02' E 010°02'0 0.0
2014-Aug-18 23:07N 44°02' E 010°02'0 0.0
2014-Aug-18 22:31N 44°02' E 010°02'0 0.0
2014-Aug-18 21:25N 44°02' E 010°02'0 0.0
2014-Aug-18 20:31N 44°02' E 010°02'0 0.0
2014-Aug-18 19:31N 44°02' E 010°02'0 0.0
2014-Aug-18 18:25N 44°02' E 010°02'0 0.0
2014-Aug-18 17:25N 44°02' E 010°02'0 0.0
2014-Aug-18 16:31N 44°02' E 010°02'0 0.0
2014-Aug-18 15:31N 44°02' E 010°02'0 0.0
2014-Aug-18 14:31N 44°02' E 010°02'0 0.0
2014-Aug-18 13:31N 44°02' E 010°02'0 0.0
2014-Aug-18 12:31N 44°02' E 010°02'0 0.0
2014-Aug-18 11:31N 44°02' E 010°02'0 0.0
2014-Aug-18 10:31N 44°02' E 010°02'0 0.0
2014-Aug-18 09:25N 44°02' E 010°02'0 0.0
2014-Aug-18 08:31N 44°02' E 010°02'0 0.0
2014-Aug-18 07:31N 44°02' E 010°02'0 0.0
2014-Aug-18 06:31N 44°02' E 010°02'0 0.0
2014-Aug-18 05:30N 44°02' E 010°02'0 0.0
2014-Aug-18 04:24N 44°02' E 010°02'0 0.0
2014-Aug-18 03:33N 44°02' E 010°02'0 0.0
2014-Aug-18 02:30N 44°02' E 010°02'0 0.0
2014-Aug-18 01:27N 44°02' E 010°02'0 0.0
2014-Aug-18 00:30N 44°02' E 010°02'0 0.0
2014-Aug-17 18:33N 44°02' E 010°02'0 0.0
2014-Aug-17 17:33N 44°02' E 010°02'0 0.0
2014-Aug-17 16:33N 44°02' E 010°02'0 0.0
2014-Aug-17 15:33N 44°02' E 010°02'0 0.0
2014-Aug-17 14:33N 44°02' E 010°02'0 0.0
2014-Aug-17 13:30N 44°02' E 010°02'0 0.0
2014-Aug-17 12:30N 44°02' E 010°02'2 2.0
2014-Aug-17 11:33N 44°00' E 010°03'10 9.7
2014-Aug-17 10:33N 43°50' E 010°03'1212.3
2014-Aug-17 09:33N 43°38' E 010°05'9 9.1
2014-Aug-17 08:33N 43°32' E 010°14'3 3.3
2014-Aug-17 07:33N 43°33' E 010°18'0 0.0
2014-Aug-17 06:33N 43°33' E 010°18'0 0.0
2014-Aug-17 05:33N 43°33' E 010°18'0 0.0
2014-Aug-17 04:33N 43°33' E 010°18'0 0.0
2014-Aug-17 03:33N 43°33' E 010°18'0 0.0
2014-Aug-17 02:33N 43°33' E 010°18'0 0.0
2014-Aug-17 01:33N 43°33' E 010°18'0 0.0
2014-Aug-17 00:33N 43°33' E 010°18'0 0.0
2014-Aug-16 23:33N 43°33' E 010°18'0 0.0
2014-Aug-16 22:33N 43°33' E 010°18'0 0.0
2014-Aug-16 21:33N 43°33' E 010°18'0 0.0
2014-Aug-16 20:33N 43°33' E 010°18'0 0.0
2014-Aug-16 19:33N 43°33' E 010°18'0 0.0
2014-Aug-16 18:33N 43°33' E 010°18'0 0.0
2014-Aug-16 17:33N 43°33' E 010°18'0 0.0
2014-Aug-16 16:33N 43°33' E 010°18'0 0.0
2014-Aug-16 15:33N 43°33' E 010°18'0 0.0
2014-Aug-16 14:33N 43°33' E 010°18'0 0.0
2014-Aug-16 13:33N 43°33' E 010°18'0 0.0
2014-Aug-16 12:33N 43°33' E 010°18'0 0.0
2014-Aug-16 11:33N 43°33' E 010°18'0 0.0
2014-Aug-16 10:33N 43°33' E 010°18'0 0.0
2014-Aug-16 09:33N 43°33' E 010°18'0 0.0
2014-Aug-16 08:33N 43°33' E 010°18'0 0.0
2014-Aug-16 07:33N 43°33' E 010°18'0 0.0
2014-Aug-16 06:29N 43°33' E 010°18'0 0.0
2014-Aug-16 05:32N 43°33' E 010°18'0 0.0
2014-Aug-16 04:32N 43°33' E 010°18'0 0.0
2014-Aug-16 03:32N 43°33' E 010°18'0 0.0
2014-Aug-16 02:32N 43°33' E 010°18'1 1.1
2014-Aug-16 01:34N 43°32' E 010°17'7 7.5
2014-Aug-16 00:33N 43°28' E 010°09'1212.1
2014-Aug-15 23:33N 43°21' E 009°56'1312.6
2014-Aug-15 22:33N 43°16' E 009°39'1212.6
2014-Aug-15 21:34N 43°12' E 009°23'1312.8
2014-Aug-15 20:31N 43°07' E 009°06'1612.8
2014-Aug-15 19:17N 43°02' E 008°46'2212.5
2014-Aug-15 17:33N 42°53' E 008°18'1212.3
2014-Aug-15 16:33N 42°49' E 008°03'12312.1
2014-Aug-15 06:24N 42°04' E 005°28'1011.6
2014-Aug-15 05:33N 42°01' E 005°15'1111.5
2014-Aug-15 04:33N 41°57' E 005°01'1111.3
2014-Aug-15 03:33N 41°52' E 004°47'1111.1
2014-Aug-15 02:33N 41°49' E 004°33'1111.1
2014-Aug-15 01:33N 41°45' E 004°19'1111.2
2014-Aug-15 00:33N 41°40' E 004°05'1111.2
2014-Aug-14 23:34N 41°36' E 003°51'1211.5
2014-Aug-14 22:33N 41°32' E 003°37'1111.3
2014-Aug-14 21:33N 41°28' E 003°23'1111.2
2014-Aug-14 20:33N 41°24' E 003°09'1111.3
2014-Aug-14 19:34N 41°20' E 002°55'1211.7
2014-Aug-14 18:33N 41°16' E 002°40'1211.8
2014-Aug-14 17:33N 41°11' E 002°26'2911.9
2014-Aug-14 15:08N 41°04' E 001°49'40 1.3
2014-Aug-13 08:21N 40°40' E 001°07'1411.3
2014-Aug-13 07:07N 40°27' E 001°03'2512.6
2014-Aug-13 05:09N 40°02' E 000°56'911.9
2014-Aug-13 04:21N 39°53' E 000°54'4612.0
2014-Aug-13 00:33N 39°09' E 000°38'1512.1
2014-Aug-12 23:18N 38°55' E 000°32'2011.4
2014-Aug-12 21:32N 38°36' E 000°22'1212.0
2014-Aug-12 20:33N 38°26' E 000°14'1312.0
2014-Aug-12 19:27N 38°15' E 000°05'1011.6
2014-Aug-12 18:33N 38°06' W 000°03'2812.0
2014-Aug-12 16:14N 37°43' W 000°22'811.4
2014-Aug-12 15:32N 37°37' W 000°28'1211.5
2014-Aug-12 14:29N 37°28' W 000°39'1111.7
2014-Aug-12 13:33N 37°21' W 000°49'1211.7
2014-Aug-12 12:33N 37°13' W 001°00'8311.8
2014-Aug-12 05:32N 36°21' W 002°21'1212.5
2014-Aug-12 04:33N 36°20' W 002°36'13613.5
2014-Aug-11 18:27N 35°59' W 005°22'  
Track history (hours):
 
Tides and Currents Weather Stations Pressure Air Temp Water Temp Dewpoint Dewpoint Depression Visibility Wind Speed Wind Dir Waves Ship Positions

Neptune Antlia

Last reported at 2014-Aug-20 20:25 UTC. Time now 2014-Aug-23 13:27 UTC.
Position N 38°60' E 015°16'.

Type: Cargo ship. MMSI: 563737000.

Date/timePositionNaut miles runAvg speedWind from/ knotsBaromVisibWave heightAir tempDewpointWater temp
2014-Aug-20 20:25N 38°60' E 015°16'1213.5
2014-Aug-20 19:33N 39°07' E 015°05'8113.1
2014-Aug-20 13:23N 39°59' E 013°44'1113.3
2014-Aug-20 12:33N 40°06' E 013°33'22412.4
2014-Aug-19 18:30N 42°33' E 009°49'2612.5
2014-Aug-19 16:24N 42°59' E 009°40'911.3
2014-Aug-19 15:33N 43°08' E 009°41'1211.7
2014-Aug-19 14:33N 43°20' E 009°43'1212.0
2014-Aug-19 13:33N 43°32' E 009°45'1211.8
2014-Aug-19 12:33N 43°44' E 009°46'1212.2
2014-Aug-19 11:33N 43°53' E 009°56'10 9.7
2014-Aug-19 10:33N 44°02' E 010°02'0 0.0
2014-Aug-19 09:19N 44°02' E 010°02'0 0.0
2014-Aug-19 08:25N 44°02' E 010°02'0 0.0
2014-Aug-19 07:31N 44°02' E 010°02'0 0.0
2014-Aug-19 06:31N 44°02' E 010°02'0 0.0
2014-Aug-19 05:31N 44°02' E 010°02'0 0.0
2014-Aug-19 04:07N 44°02' E 010°02'0 0.0
2014-Aug-19 03:25N 44°02' E 010°02'0 0.0
2014-Aug-19 02:31N 44°02' E 010°02'0 0.0
2014-Aug-19 01:31N 44°02' E 010°02'0 0.0
2014-Aug-19 00:28N 44°02' E 010°02'0 0.0
2014-Aug-18 23:07N 44°02' E 010°02'0 0.0
2014-Aug-18 22:31N 44°02' E 010°02'0 0.0
2014-Aug-18 21:25N 44°02' E 010°02'0 0.0
2014-Aug-18 20:31N 44°02' E 010°02'0 0.0
2014-Aug-18 19:31N 44°02' E 010°02'0 0.0
2014-Aug-18 18:25N 44°02' E 010°02'0 0.0
2014-Aug-18 17:25N 44°02' E 010°02'0 0.0
2014-Aug-18 16:31N 44°02' E 010°02'0 0.0
2014-Aug-18 15:31N 44°02' E 010°02'0 0.0
2014-Aug-18 14:31N 44°02' E 010°02'0 0.0
2014-Aug-18 13:31N 44°02' E 010°02'0 0.0
2014-Aug-18 12:31N 44°02' E 010°02'0 0.0
2014-Aug-18 11:31N 44°02' E 010°02'0 0.0
2014-Aug-18 10:31N 44°02' E 010°02'0 0.0
2014-Aug-18 09:25N 44°02' E 010°02'0 0.0
2014-Aug-18 08:31N 44°02' E 010°02'0 0.0
2014-Aug-18 07:31N 44°02' E 010°02'0 0.0
2014-Aug-18 06:31N 44°02' E 010°02'0 0.0
2014-Aug-18 05:30N 44°02' E 010°02'0 0.0
2014-Aug-18 04:24N 44°02' E 010°02'0 0.0
2014-Aug-18 03:33N 44°02' E 010°02'0 0.0
2014-Aug-18 02:30N 44°02' E 010°02'0 0.0
2014-Aug-18 01:27N 44°02' E 010°02'0 0.0
2014-Aug-18 00:30N 44°02' E 010°02'0 0.0
2014-Aug-17 18:33N 44°02' E 010°02'0 0.0
2014-Aug-17 17:33N 44°02' E 010°02'0 0.0
2014-Aug-17 16:33N 44°02' E 010°02'0 0.0
2014-Aug-17 15:33N 44°02' E 010°02'0 0.0
2014-Aug-17 14:33N 44°02' E 010°02'0 0.0
2014-Aug-17 13:30N 44°02' E 010°02'0 0.0
2014-Aug-17 12:30N 44°02' E 010°02'2 2.0
2014-Aug-17 11:33N 44°00' E 010°03'10 9.7
2014-Aug-17 10:33N 43°50' E 010°03'1212.3
2014-Aug-17 09:33N 43°38' E 010°05'9 9.1
2014-Aug-17 08:33N 43°32' E 010°14'3 3.3
2014-Aug-17 07:33N 43°33' E 010°18'0 0.0
2014-Aug-17 06:33N 43°33' E 010°18'0 0.0
2014-Aug-17 05:33N 43°33' E 010°18'0 0.0
2014-Aug-17 04:33N 43°33' E 010°18'0 0.0
2014-Aug-17 03:33N 43°33' E 010°18'0 0.0
2014-Aug-17 02:33N 43°33' E 010°18'0 0.0
2014-Aug-17 01:33N 43°33' E 010°18'0 0.0
2014-Aug-17 00:33N 43°33' E 010°18'0 0.0
2014-Aug-16 23:33N 43°33' E 010°18'0 0.0
2014-Aug-16 22:33N 43°33' E 010°18'0 0.0
2014-Aug-16 21:33N 43°33' E 010°18'0 0.0
2014-Aug-16 20:33N 43°33' E 010°18'0 0.0
2014-Aug-16 19:33N 43°33' E 010°18'0 0.0
2014-Aug-16 18:33N 43°33' E 010°18'0 0.0
2014-Aug-16 17:33N 43°33' E 010°18'0 0.0
2014-Aug-16 16:33N 43°33' E 010°18'0 0.0
2014-Aug-16 15:33N 43°33' E 010°18'0 0.0
2014-Aug-16 14:33N 43°33' E 010°18'0 0.0
2014-Aug-16 13:33N 43°33' E 010°18'0 0.0
2014-Aug-16 12:33N 43°33' E 010°18'0 0.0
2014-Aug-16 11:33N 43°33' E 010°18'0 0.0
2014-Aug-16 10:33N 43°33' E 010°18'0 0.0
2014-Aug-16 09:33N 43°33' E 010°18'0 0.0
2014-Aug-16 08:33N 43°33' E 010°18'0 0.0
2014-Aug-16 07:33N 43°33' E 010°18'0 0.0
2014-Aug-16 06:29N 43°33' E 010°18'0 0.0
2014-Aug-16 05:32N 43°33' E 010°18'0 0.0
2014-Aug-16 04:32N 43°33' E 010°18'0 0.0
2014-Aug-16 03:32N 43°33' E 010°18'0 0.0
2014-Aug-16 02:32N 43°33' E 010°18'1 1.1
2014-Aug-16 01:34N 43°32' E 010°17'7 7.5
2014-Aug-16 00:33N 43°28' E 010°09'1212.1
2014-Aug-15 23:33N 43°21' E 009°56'1312.6
2014-Aug-15 22:33N 43°16' E 009°39'1212.6
2014-Aug-15 21:34N 43°12' E 009°23'1312.8
2014-Aug-15 20:31N 43°07' E 009°06'1612.8
2014-Aug-15 19:17N 43°02' E 008°46'2212.5
2014-Aug-15 17:33N 42°53' E 008°18'1212.3
2014-Aug-15 16:33N 42°49' E 008°03'12312.1
2014-Aug-15 06:24N 42°04' E 005°28'1011.6
2014-Aug-15 05:33N 42°01' E 005°15'1111.5
2014-Aug-15 04:33N 41°57' E 005°01'1111.3
2014-Aug-15 03:33N 41°52' E 004°47'1111.1
2014-Aug-15 02:33N 41°49' E 004°33'1111.1
2014-Aug-15 01:33N 41°45' E 004°19'1111.2
2014-Aug-15 00:33N 41°40' E 004°05'1111.2
2014-Aug-14 23:34N 41°36' E 003°51'1211.5
2014-Aug-14 22:33N 41°32' E 003°37'1111.3
2014-Aug-14 21:33N 41°28' E 003°23'1111.2
2014-Aug-14 20:33N 41°24' E 003°09'1111.3
2014-Aug-14 19:34N 41°20' E 002°55'1211.7
2014-Aug-14 18:33N 41°16' E 002°40'1211.8
2014-Aug-14 17:33N 41°11' E 002°26'2911.9
2014-Aug-14 15:08N 41°04' E 001°49'40 1.3
2014-Aug-13 08:21N 40°40' E 001°07'1411.3
2014-Aug-13 07:07N 40°27' E 001°03'2512.6
2014-Aug-13 05:09N 40°02' E 000°56'911.9
2014-Aug-13 04:21N 39°53' E 000°54'4612.0
2014-Aug-13 00:33N 39°09' E 000°38'1512.1
2014-Aug-12 23:18N 38°55' E 000°32'2011.4
2014-Aug-12 21:32N 38°36' E 000°22'1212.0
2014-Aug-12 20:33N 38°26' E 000°14'1312.0
2014-Aug-12 19:27N 38°15' E 000°05'1011.6
2014-Aug-12 18:33N 38°06' W 000°03'2812.0
2014-Aug-12 16:14N 37°43' W 000°22'811.4
2014-Aug-12 15:32N 37°37' W 000°28'1211.5
2014-Aug-12 14:29N 37°28' W 000°39'1111.7
2014-Aug-12 13:33N 37°21' W 000°49'1211.7
2014-Aug-12 12:33N 37°13' W 001°00'8311.8
2014-Aug-12 05:32N 36°21' W 002°21'1212.5
2014-Aug-12 04:33N 36°20' W 002°36'13613.5
2014-Aug-11 18:27N 35°59' W 005°22'  

Dump ship's entire track history